sensor_id;sensor_type;location;lat;lon;timestamp;P1;durP1;ratioP1;P2;durP2;ratioP2
26977;SDS011;56314;48.088;11.642;2023-02-17T00:01:56;9.60;;;5.28;;
26977;SDS011;56314;48.088;11.642;2023-02-17T00:04:21;10.45;;;5.43;;
26977;SDS011;56314;48.088;11.642;2023-02-17T00:06:46;10.90;;;5.50;;
26977;SDS011;56314;48.088;11.642;2023-02-17T00:09:11;9.57;;;4.82;;
26977;SDS011;56314;48.088;11.642;2023-02-17T00:11:37;10.95;;;5.53;;
26977;SDS011;56314;48.088;11.642;2023-02-17T00:14:02;7.82;;;5.10;;
26977;SDS011;56314;48.088;11.642;2023-02-17T00:16:28;10.15;;;4.95;;
26977;SDS011;56314;48.088;11.642;2023-02-17T00:18:55;13.95;;;6.05;;
26977;SDS011;56314;48.088;11.642;2023-02-17T00:21:22;8.25;;;5.25;;
26977;SDS011;56314;48.088;11.642;2023-02-17T00:23:50;8.07;;;5.40;;
26977;SDS011;56314;48.088;11.642;2023-02-17T00:26:16;9.30;;;5.55;;
26977;SDS011;56314;48.088;11.642;2023-02-17T00:28:42;8.77;;;4.65;;
26977;SDS011;56314;48.088;11.642;2023-02-17T00:31:11;8.38;;;5.47;;
26977;SDS011;56314;48.088;11.642;2023-02-17T00:33:38;10.70;;;5.72;;
26977;SDS011;56314;48.088;11.642;2023-02-17T00:36:05;9.35;;;5.13;;
26977;SDS011;56314;48.088;11.642;2023-02-17T00:38:32;10.48;;;5.03;;
26977;SDS011;56314;48.088;11.642;2023-02-17T00:40:57;9.45;;;5.32;;
26977;SDS011;56314;48.088;11.642;2023-02-17T00:43:23;9.77;;;5.20;;
26977;SDS011;56314;48.088;11.642;2023-02-17T00:45:48;10.32;;;5.32;;
26977;SDS011;56314;48.088;11.642;2023-02-17T00:48:14;10.85;;;5.63;;
26977;SDS011;56314;48.088;11.642;2023-02-17T00:50:39;10.70;;;5.75;;
26977;SDS011;56314;48.088;11.642;2023-02-17T00:53:04;7.93;;;5.38;;
26977;SDS011;56314;48.088;11.642;2023-02-17T00:55:29;8.65;;;5.18;;
26977;SDS011;56314;48.088;11.642;2023-02-17T00:57:55;9.18;;;5.22;;
26977;SDS011;56314;48.088;11.642;2023-02-17T01:00:20;9.13;;;4.88;;
26977;SDS011;56314;48.088;11.642;2023-02-17T01:02:46;11.38;;;6.13;;
26977;SDS011;56314;48.088;11.642;2023-02-17T01:05:11;7.45;;;5.13;;
26977;SDS011;56314;48.088;11.642;2023-02-17T01:07:36;11.15;;;5.68;;
26977;SDS011;56314;48.088;11.642;2023-02-17T01:10:03;9.93;;;5.20;;
26977;SDS011;56314;48.088;11.642;2023-02-17T01:12:29;7.78;;;5.30;;
26977;SDS011;56314;48.088;11.642;2023-02-17T01:14:55;10.98;;;5.35;;
26977;SDS011;56314;48.088;11.642;2023-02-17T01:17:20;8.18;;;5.13;;
26977;SDS011;56314;48.088;11.642;2023-02-17T01:19:45;9.23;;;5.03;;
26977;SDS011;56314;48.088;11.642;2023-02-17T01:22:11;9.43;;;5.53;;
26977;SDS011;56314;48.088;11.642;2023-02-17T01:24:37;8.68;;;5.63;;
26977;SDS011;56314;48.088;11.642;2023-02-17T01:27:03;8.13;;;4.43;;
26977;SDS011;56314;48.088;11.642;2023-02-17T01:29:28;11.77;;;5.25;;
26977;SDS011;56314;48.088;11.642;2023-02-17T01:31:54;10.73;;;5.72;;
26977;SDS011;56314;48.088;11.642;2023-02-17T01:34:19;7.70;;;4.68;;
26977;SDS011;56314;48.088;11.642;2023-02-17T01:36:45;8.95;;;5.40;;
26977;SDS011;56314;48.088;11.642;2023-02-17T01:39:12;7.80;;;5.05;;
26977;SDS011;56314;48.088;11.642;2023-02-17T01:41:38;10.40;;;5.30;;
26977;SDS011;56314;48.088;11.642;2023-02-17T01:44:05;9.15;;;5.38;;
26977;SDS011;56314;48.088;11.642;2023-02-17T01:46:32;8.77;;;5.47;;
26977;SDS011;56314;48.088;11.642;2023-02-17T01:49:02;7.95;;;5.07;;
26977;SDS011;56314;48.088;11.642;2023-02-17T01:51:35;10.50;;;5.47;;
26977;SDS011;56314;48.088;11.642;2023-02-17T01:54:07;11.15;;;4.93;;
26977;SDS011;56314;48.088;11.642;2023-02-17T01:56:37;7.43;;;4.90;;
26977;SDS011;56314;48.088;11.642;2023-02-17T01:59:09;7.65;;;4.40;;
26977;SDS011;56314;48.088;11.642;2023-02-17T02:01:36;9.88;;;5.50;;
26977;SDS011;56314;48.088;11.642;2023-02-17T02:04:03;11.43;;;5.43;;
26977;SDS011;56314;48.088;11.642;2023-02-17T02:06:30;8.57;;;4.90;;
26977;SDS011;56314;48.088;11.642;2023-02-17T02:11:41;7.70;;;5.13;;
26977;SDS011;56314;48.088;11.642;2023-02-17T02:14:07;7.63;;;4.68;;
26977;SDS011;56314;48.088;11.642;2023-02-17T02:33:21;7.20;;;4.38;;
26977;SDS011;56314;48.088;11.642;2023-02-17T02:35:54;7.40;;;4.10;;
26977;SDS011;56314;48.088;11.642;2023-02-17T02:41:11;8.18;;;4.47;;
26977;SDS011;56314;48.088;11.642;2023-02-17T02:43:42;8.07;;;4.55;;
26977;SDS011;56314;48.088;11.642;2023-02-17T02:46:07;9.23;;;5.07;;
26977;SDS011;56314;48.088;11.642;2023-02-17T02:48:33;7.32;;;4.60;;
26977;SDS011;56314;48.088;11.642;2023-02-17T02:58:47;8.70;;;5.07;;
26977;SDS011;56314;48.088;11.642;2023-02-17T03:01:42;6.80;;;4.13;;
26977;SDS011;56314;48.088;11.642;2023-02-17T03:04:23;7.43;;;4.10;;
26977;SDS011;56314;48.088;11.642;2023-02-17T03:06:57;8.13;;;4.03;;
26977;SDS011;56314;48.088;11.642;2023-02-17T03:09:27;8.40;;;4.88;;
26977;SDS011;56314;48.088;11.642;2023-02-17T03:11:54;11.10;;;5.03;;
26977;SDS011;56314;48.088;11.642;2023-02-17T03:14:21;9.90;;;4.93;;
26977;SDS011;56314;48.088;11.642;2023-02-17T03:16:47;7.53;;;4.55;;
26977;SDS011;56314;48.088;11.642;2023-02-17T03:19:14;7.60;;;4.30;;
26977;SDS011;56314;48.088;11.642;2023-02-17T03:21:48;9.32;;;4.28;;
26977;SDS011;56314;48.088;11.642;2023-02-17T03:24:19;10.07;;;4.15;;
26977;SDS011;56314;48.088;11.642;2023-02-17T03:26:45;8.48;;;4.05;;
26977;SDS011;56314;48.088;11.642;2023-02-17T03:29:10;8.30;;;4.00;;
26977;SDS011;56314;48.088;11.642;2023-02-17T03:31:36;6.93;;;4.00;;
26977;SDS011;56314;48.088;11.642;2023-02-17T03:34:02;8.05;;;4.85;;
26977;SDS011;56314;48.088;11.642;2023-02-17T03:36:28;12.73;;;4.47;;
26977;SDS011;56314;48.088;11.642;2023-02-17T03:38:54;8.25;;;3.90;;
26977;SDS011;56314;48.088;11.642;2023-02-17T03:41:20;8.85;;;4.40;;
26977;SDS011;56314;48.088;11.642;2023-02-17T03:43:46;6.68;;;4.32;;
26977;SDS011;56314;48.088;11.642;2023-02-17T03:46:11;9.20;;;4.35;;
26977;SDS011;56314;48.088;11.642;2023-02-17T03:48:38;7.28;;;4.05;;
26977;SDS011;56314;48.088;11.642;2023-02-17T03:51:12;6.53;;;4.25;;
26977;SDS011;56314;48.088;11.642;2023-02-17T03:53:39;7.20;;;4.07;;
26977;SDS011;56314;48.088;11.642;2023-02-17T03:56:06;4.63;;;3.33;;
26977;SDS011;56314;48.088;11.642;2023-02-17T03:58:31;8.30;;;3.83;;
26977;SDS011;56314;48.088;11.642;2023-02-17T04:00:57;8.07;;;3.92;;
26977;SDS011;56314;48.088;11.642;2023-02-17T04:03:23;5.90;;;3.63;;
26977;SDS011;56314;48.088;11.642;2023-02-17T04:05:48;6.60;;;4.00;;
26977;SDS011;56314;48.088;11.642;2023-02-17T04:08:13;6.50;;;3.67;;
26977;SDS011;56314;48.088;11.642;2023-02-17T04:10:39;5.40;;;3.53;;
26977;SDS011;56314;48.088;11.642;2023-02-17T04:13:04;8.70;;;3.58;;
26977;SDS011;56314;48.088;11.642;2023-02-17T04:15:29;5.93;;;3.58;;
26977;SDS011;56314;48.088;11.642;2023-02-17T04:17:55;8.52;;;3.80;;
26977;SDS011;56314;48.088;11.642;2023-02-17T04:20:20;5.20;;;3.33;;
26977;SDS011;56314;48.088;11.642;2023-02-17T04:22:46;8.95;;;3.75;;
26977;SDS011;56314;48.088;11.642;2023-02-17T04:25:11;5.00;;;3.65;;
26977;SDS011;56314;48.088;11.642;2023-02-17T04:27:36;5.80;;;3.55;;
26977;SDS011;56314;48.088;11.642;2023-02-17T04:30:02;5.85;;;3.28;;
26977;SDS011;56314;48.088;11.642;2023-02-17T04:32:28;4.80;;;3.38;;
26977;SDS011;56314;48.088;11.642;2023-02-17T04:34:53;4.30;;;2.83;;
26977;SDS011;56314;48.088;11.642;2023-02-17T04:37:19;9.77;;;3.30;;
26977;SDS011;56314;48.088;11.642;2023-02-17T04:39:44;8.32;;;3.50;;
26977;SDS011;56314;48.088;11.642;2023-02-17T04:42:09;8.98;;;3.17;;
26977;SDS011;56314;48.088;11.642;2023-02-17T04:44:35;7.78;;;3.28;;
26977;SDS011;56314;48.088;11.642;2023-02-17T04:47:00;6.60;;;3.15;;
26977;SDS011;56314;48.088;11.642;2023-02-17T04:49:25;10.23;;;3.30;;
26977;SDS011;56314;48.088;11.642;2023-02-17T04:51:51;7.25;;;3.20;;
26977;SDS011;56314;48.088;11.642;2023-02-17T04:54:16;9.13;;;2.95;;
26977;SDS011;56314;48.088;11.642;2023-02-17T04:56:41;4.07;;;2.67;;
26977;SDS011;56314;48.088;11.642;2023-02-17T04:59:07;7.55;;;3.00;;
26977;SDS011;56314;48.088;11.642;2023-02-17T05:01:32;6.72;;;3.08;;
26977;SDS011;56314;48.088;11.642;2023-02-17T05:03:57;4.93;;;2.90;;
26977;SDS011;56314;48.088;11.642;2023-02-17T05:06:23;4.65;;;2.72;;
26977;SDS011;56314;48.088;11.642;2023-02-17T05:08:48;5.55;;;2.85;;
26977;SDS011;56314;48.088;11.642;2023-02-17T05:11:14;4.78;;;2.95;;
26977;SDS011;56314;48.088;11.642;2023-02-17T05:13:40;5.55;;;2.92;;
26977;SDS011;56314;48.088;11.642;2023-02-17T05:16:05;5.93;;;3.17;;
26977;SDS011;56314;48.088;11.642;2023-02-17T05:18:31;7.20;;;3.33;;
26977;SDS011;56314;48.088;11.642;2023-02-17T05:20:56;6.28;;;3.30;;
26977;SDS011;56314;48.088;11.642;2023-02-17T05:23:21;7.75;;;3.70;;
26977;SDS011;56314;48.088;11.642;2023-02-17T05:25:47;6.72;;;3.50;;
26977;SDS011;56314;48.088;11.642;2023-02-17T05:28:12;5.97;;;3.20;;
26977;SDS011;56314;48.088;11.642;2023-02-17T05:30:37;8.10;;;3.33;;
26977;SDS011;56314;48.088;11.642;2023-02-17T05:33:03;5.25;;;2.83;;
26977;SDS011;56314;48.088;11.642;2023-02-17T05:35:28;4.72;;;3.10;;
26977;SDS011;56314;48.088;11.642;2023-02-17T05:37:53;4.78;;;3.22;;
26977;SDS011;56314;48.088;11.642;2023-02-17T05:40:19;8.13;;;3.53;;
26977;SDS011;56314;48.088;11.642;2023-02-17T05:42:44;9.63;;;2.83;;
26977;SDS011;56314;48.088;11.642;2023-02-17T05:45:09;6.07;;;3.28;;
26977;SDS011;56314;48.088;11.642;2023-02-17T05:47:35;6.03;;;2.97;;
26977;SDS011;56314;48.088;11.642;2023-02-17T05:50:01;4.05;;;2.92;;
26977;SDS011;56314;48.088;11.642;2023-02-17T05:52:26;6.97;;;3.03;;
26977;SDS011;56314;48.088;11.642;2023-02-17T05:54:52;4.93;;;2.90;;
26977;SDS011;56314;48.088;11.642;2023-02-17T05:57:17;8.43;;;2.95;;
26977;SDS011;56314;48.088;11.642;2023-02-17T05:59:42;4.85;;;2.83;;
26977;SDS011;56314;48.088;11.642;2023-02-17T06:02:08;4.13;;;2.95;;
26977;SDS011;56314;48.088;11.642;2023-02-17T06:04:33;3.75;;;2.55;;
26977;SDS011;56314;48.088;11.642;2023-02-17T06:06:58;5.32;;;2.83;;
26977;SDS011;56314;48.088;11.642;2023-02-17T06:09:24;7.30;;;3.17;;
26977;SDS011;56314;48.088;11.642;2023-02-17T06:11:49;5.80;;;3.05;;
26977;SDS011;56314;48.088;11.642;2023-02-17T06:14:15;4.68;;;2.75;;
26977;SDS011;56314;48.088;11.642;2023-02-17T06:16:40;5.70;;;2.83;;
26977;SDS011;56314;48.088;11.642;2023-02-17T06:19:05;6.20;;;2.83;;
26977;SDS011;56314;48.088;11.642;2023-02-17T06:21:31;7.60;;;2.75;;
26977;SDS011;56314;48.088;11.642;2023-02-17T06:23:56;7.50;;;3.22;;
26977;SDS011;56314;48.088;11.642;2023-02-17T06:26:21;4.20;;;2.78;;
26977;SDS011;56314;48.088;11.642;2023-02-17T06:28:47;5.82;;;2.60;;
26977;SDS011;56314;48.088;11.642;2023-02-17T06:31:12;13.05;;;3.78;;
26977;SDS011;56314;48.088;11.642;2023-02-17T06:33:37;6.15;;;2.33;;
26977;SDS011;56314;48.088;11.642;2023-02-17T06:36:03;6.90;;;3.67;;
26977;SDS011;56314;48.088;11.642;2023-02-17T06:38:28;6.25;;;3.20;;
26977;SDS011;56314;48.088;11.642;2023-02-17T06:40:54;6.72;;;2.70;;
26977;SDS011;56314;48.088;11.642;2023-02-17T06:43:19;9.45;;;2.97;;
26977;SDS011;56314;48.088;11.642;2023-02-17T06:45:45;7.13;;;2.63;;
26977;SDS011;56314;48.088;11.642;2023-02-17T06:48:10;7.53;;;2.53;;
26977;SDS011;56314;48.088;11.642;2023-02-17T06:50:36;6.97;;;2.75;;
26977;SDS011;56314;48.088;11.642;2023-02-17T06:53:01;8.52;;;2.58;;
26977;SDS011;56314;48.088;11.642;2023-02-17T06:55:27;8.45;;;2.80;;
26977;SDS011;56314;48.088;11.642;2023-02-17T06:57:52;9.15;;;2.90;;
26977;SDS011;56314;48.088;11.642;2023-02-17T07:00:18;4.97;;;2.92;;
26977;SDS011;56314;48.088;11.642;2023-02-17T07:02:44;9.98;;;3.17;;
26977;SDS011;56314;48.088;11.642;2023-02-17T07:05:09;8.70;;;2.83;;
26977;SDS011;56314;48.088;11.642;2023-02-17T07:07:34;5.50;;;2.38;;
26977;SDS011;56314;48.088;11.642;2023-02-17T07:10:00;5.40;;;3.17;;
26977;SDS011;56314;48.088;11.642;2023-02-17T07:12:26;6.38;;;2.42;;
26977;SDS011;56314;48.088;11.642;2023-02-17T07:14:52;6.57;;;2.63;;
26977;SDS011;56314;48.088;11.642;2023-02-17T07:17:17;10.90;;;2.88;;
26977;SDS011;56314;48.088;11.642;2023-02-17T07:19:42;7.15;;;2.72;;
26977;SDS011;56314;48.088;11.642;2023-02-17T07:22:08;9.68;;;3.10;;
26977;SDS011;56314;48.088;11.642;2023-02-17T07:24:33;6.93;;;2.58;;
26977;SDS011;56314;48.088;11.642;2023-02-17T07:26:58;8.18;;;3.55;;
26977;SDS011;56314;48.088;11.642;2023-02-17T07:29:24;9.38;;;3.00;;
26977;SDS011;56314;48.088;11.642;2023-02-17T07:31:50;14.70;;;2.97;;
26977;SDS011;56314;48.088;11.642;2023-02-17T07:34:15;20.50;;;3.63;;
26977;SDS011;56314;48.088;11.642;2023-02-17T07:36:41;8.73;;;3.50;;
26977;SDS011;56314;48.088;11.642;2023-02-17T07:39:06;7.80;;;2.60;;
26977;SDS011;56314;48.088;11.642;2023-02-17T07:41:32;9.40;;;2.85;;
26977;SDS011;56314;48.088;11.642;2023-02-17T07:43:58;11.27;;;2.92;;
26977;SDS011;56314;48.088;11.642;2023-02-17T07:46:24;10.02;;;3.22;;
26977;SDS011;56314;48.088;11.642;2023-02-17T07:48:50;7.47;;;2.75;;
26977;SDS011;56314;48.088;11.642;2023-02-17T07:51:17;13.32;;;3.50;;
26977;SDS011;56314;48.088;11.642;2023-02-17T07:53:44;11.57;;;3.20;;
26977;SDS011;56314;48.088;11.642;2023-02-17T07:56:11;6.97;;;3.00;;
26977;SDS011;56314;48.088;11.642;2023-02-17T07:58:42;11.18;;;3.38;;
26977;SDS011;56314;48.088;11.642;2023-02-17T08:01:09;9.70;;;3.28;;
26977;SDS011;56314;48.088;11.642;2023-02-17T08:03:39;11.02;;;4.25;;
26977;SDS011;56314;48.088;11.642;2023-02-17T08:06:12;8.27;;;3.40;;
26977;SDS011;56314;48.088;11.642;2023-02-17T08:08:40;7.28;;;2.70;;
26977;SDS011;56314;48.088;11.642;2023-02-17T08:11:24;13.82;;;2.88;;
26977;SDS011;56314;48.088;11.642;2023-02-17T08:14:09;6.20;;;3.00;;
26977;SDS011;56314;48.088;11.642;2023-02-17T08:16:34;10.98;;;2.90;;
26977;SDS011;56314;48.088;11.642;2023-02-17T08:18:59;10.30;;;3.05;;
26977;SDS011;56314;48.088;11.642;2023-02-17T08:21:25;8.77;;;3.28;;
26977;SDS011;56314;48.088;11.642;2023-02-17T08:23:51;8.93;;;2.50;;
26977;SDS011;56314;48.088;11.642;2023-02-17T08:26:17;7.35;;;3.40;;
26977;SDS011;56314;48.088;11.642;2023-02-17T08:28:44;5.47;;;2.63;;
26977;SDS011;56314;48.088;11.642;2023-02-17T08:31:17;15.48;;;3.38;;
26977;SDS011;56314;48.088;11.642;2023-02-17T08:33:53;10.38;;;2.80;;
26977;SDS011;56314;48.088;11.642;2023-02-17T08:36:20;11.95;;;3.78;;
26977;SDS011;56314;48.088;11.642;2023-02-17T08:38:48;7.60;;;2.45;;
26977;SDS011;56314;48.088;11.642;2023-02-17T08:43:42;6.18;;;3.03;;
26977;SDS011;56314;48.088;11.642;2023-02-17T08:46:08;10.43;;;3.05;;
26977;SDS011;56314;48.088;11.642;2023-02-17T08:48:35;19.38;;;2.85;;
26977;SDS011;56314;48.088;11.642;2023-02-17T08:51:01;9.63;;;3.10;;
26977;SDS011;56314;48.088;11.642;2023-02-17T08:53:27;11.60;;;3.67;;
26977;SDS011;56314;48.088;11.642;2023-02-17T08:55:53;11.13;;;3.13;;
26977;SDS011;56314;48.088;11.642;2023-02-17T08:58:18;6.53;;;2.65;;
26977;SDS011;56314;48.088;11.642;2023-02-17T09:00:43;14.52;;;3.03;;
26977;SDS011;56314;48.088;11.642;2023-02-17T09:03:09;8.07;;;2.80;;
26977;SDS011;56314;48.088;11.642;2023-02-17T09:05:34;8.48;;;2.88;;
26977;SDS011;56314;48.088;11.642;2023-02-17T09:08:00;8.30;;;3.13;;
26977;SDS011;56314;48.088;11.642;2023-02-17T09:10:25;5.68;;;2.70;;
26977;SDS011;56314;48.088;11.642;2023-02-17T09:12:51;10.20;;;2.63;;
26977;SDS011;56314;48.088;11.642;2023-02-17T09:15:16;8.85;;;2.85;;
26977;SDS011;56314;48.088;11.642;2023-02-17T09:17:42;11.27;;;3.72;;
26977;SDS011;56314;48.088;11.642;2023-02-17T09:20:08;17.27;;;3.35;;
26977;SDS011;56314;48.088;11.642;2023-02-17T09:22:34;11.30;;;3.55;;
26977;SDS011;56314;48.088;11.642;2023-02-17T09:25:00;10.18;;;3.30;;
26977;SDS011;56314;48.088;11.642;2023-02-17T09:27:26;9.85;;;3.38;;
26977;SDS011;56314;48.088;11.642;2023-02-17T09:29:51;5.70;;;3.05;;
26977;SDS011;56314;48.088;11.642;2023-02-17T09:32:16;10.95;;;3.42;;
26977;SDS011;56314;48.088;11.642;2023-02-17T09:34:41;10.10;;;3.75;;
26977;SDS011;56314;48.088;11.642;2023-02-17T09:37:19;10.00;;;3.08;;
26977;SDS011;56314;48.088;11.642;2023-02-17T09:39:46;12.52;;;3.50;;
26977;SDS011;56314;48.088;11.642;2023-02-17T09:42:19;9.35;;;3.15;;
26977;SDS011;56314;48.088;11.642;2023-02-17T09:44:50;9.45;;;3.10;;
26977;SDS011;56314;48.088;11.642;2023-02-17T09:47:21;12.75;;;4.05;;
26977;SDS011;56314;48.088;11.642;2023-02-17T09:49:50;11.98;;;3.15;;
26977;SDS011;56314;48.088;11.642;2023-02-17T09:55:17;10.88;;;4.03;;
26977;SDS011;56314;48.088;11.642;2023-02-17T10:00:22;12.45;;;4.32;;
26977;SDS011;56314;48.088;11.642;2023-02-17T10:05:27;9.43;;;2.78;;
26977;SDS011;56314;48.088;11.642;2023-02-17T10:08:02;6.70;;;2.72;;
26977;SDS011;56314;48.088;11.642;2023-02-17T10:10:39;9.68;;;3.30;;
26977;SDS011;56314;48.088;11.642;2023-02-17T10:13:10;10.30;;;3.63;;
26977;SDS011;56314;48.088;11.642;2023-02-17T10:15:39;6.28;;;2.85;;
26977;SDS011;56314;48.088;11.642;2023-02-17T10:18:25;8.38;;;2.92;;
26977;SDS011;56314;48.088;11.642;2023-02-17T10:21:06;6.00;;;2.92;;
26977;SDS011;56314;48.088;11.642;2023-02-17T10:23:36;7.03;;;3.05;;
26977;SDS011;56314;48.088;11.642;2023-02-17T10:31:43;9.73;;;2.60;;
26977;SDS011;56314;48.088;11.642;2023-02-17T10:34:19;11.25;;;3.65;;
26977;SDS011;56314;48.088;11.642;2023-02-17T10:40:16;7.32;;;2.80;;
26977;SDS011;56314;48.088;11.642;2023-02-17T10:42:36;6.70;;;2.47;;
26977;SDS011;56314;48.088;11.642;2023-02-17T10:45:04;10.27;;;3.03;;
26977;SDS011;56314;48.088;11.642;2023-02-17T10:47:55;7.15;;;2.22;;
26977;SDS011;56314;48.088;11.642;2023-02-17T10:50:25;10.82;;;2.95;;
26977;SDS011;56314;48.088;11.642;2023-02-17T10:52:50;9.25;;;2.90;;
26977;SDS011;56314;48.088;11.642;2023-02-17T10:55:23;12.85;;;3.55;;
26977;SDS011;56314;48.088;11.642;2023-02-17T10:57:53;10.25;;;2.83;;
26977;SDS011;56314;48.088;11.642;2023-02-17T11:00:24;8.77;;;2.65;;
26977;SDS011;56314;48.088;11.642;2023-02-17T11:02:50;8.95;;;2.63;;
26977;SDS011;56314;48.088;11.642;2023-02-17T11:05:24;10.27;;;2.67;;
26977;SDS011;56314;48.088;11.642;2023-02-17T11:07:59;8.27;;;2.70;;
26977;SDS011;56314;48.088;11.642;2023-02-17T11:10:29;5.70;;;2.42;;
26977;SDS011;56314;48.088;11.642;2023-02-17T11:13:00;10.07;;;2.70;;
26977;SDS011;56314;48.088;11.642;2023-02-17T11:15:34;6.88;;;3.05;;
26977;SDS011;56314;48.088;11.642;2023-02-17T11:18:10;8.75;;;2.80;;
26977;SDS011;56314;48.088;11.642;2023-02-17T11:20:44;8.68;;;2.92;;
26977;SDS011;56314;48.088;11.642;2023-02-17T11:25:39;8.98;;;3.05;;
26977;SDS011;56314;48.088;11.642;2023-02-17T11:28:05;4.38;;;2.53;;
26977;SDS011;56314;48.088;11.642;2023-02-17T11:30:37;5.95;;;2.28;;
26977;SDS011;56314;48.088;11.642;2023-02-17T11:33:11;6.95;;;2.60;;
26977;SDS011;56314;48.088;11.642;2023-02-17T11:38:10;9.90;;;2.70;;
26977;SDS011;56314;48.088;11.642;2023-02-17T11:40:37;4.60;;;2.63;;
26977;SDS011;56314;48.088;11.642;2023-02-17T11:43:03;5.30;;;2.60;;
26977;SDS011;56314;48.088;11.642;2023-02-17T11:56:22;5.65;;;2.38;;
26977;SDS011;56314;48.088;11.642;2023-02-17T11:59:00;7.95;;;2.17;;
26977;SDS011;56314;48.088;11.642;2023-02-17T12:26:13;5.97;;;2.00;;
26977;SDS011;56314;48.088;11.642;2023-02-17T12:31:55;4.37;;;1.93;;
26977;SDS011;56314;48.088;11.642;2023-02-17T12:34:40;7.25;;;2.47;;
26977;SDS011;56314;48.088;11.642;2023-02-17T12:37:30;5.30;;;2.55;;
26977;SDS011;56314;48.088;11.642;2023-02-17T12:40:00;11.07;;;2.42;;
26977;SDS011;56314;48.088;11.642;2023-02-17T12:42:29;17.02;;;4.15;;
26977;SDS011;56314;48.088;11.642;2023-02-17T12:45:02;5.47;;;2.28;;
26977;SDS011;56314;48.088;11.642;2023-02-17T12:47:35;6.13;;;2.20;;
26977;SDS011;56314;48.088;11.642;2023-02-17T12:50:20;6.30;;;2.30;;
26977;SDS011;56314;48.088;11.642;2023-02-17T12:52:56;4.03;;;2.15;;
26977;SDS011;56314;48.088;11.642;2023-02-17T12:55:31;5.38;;;2.15;;
26977;SDS011;56314;48.088;11.642;2023-02-17T12:58:07;4.97;;;2.28;;
26977;SDS011;56314;48.088;11.642;2023-02-17T13:00:46;4.25;;;2.20;;
26977;SDS011;56314;48.088;11.642;2023-02-17T13:03:16;6.60;;;1.95;;
26977;SDS011;56314;48.088;11.642;2023-02-17T13:05:59;3.55;;;2.17;;
26977;SDS011;56314;48.088;11.642;2023-02-17T13:09:14;4.55;;;2.28;;
26977;SDS011;56314;48.088;11.642;2023-02-17T13:11:32;7.68;;;2.55;;
26977;SDS011;56314;48.088;11.642;2023-02-17T13:14:09;6.93;;;2.78;;
26977;SDS011;56314;48.088;11.642;2023-02-17T13:16:42;5.07;;;1.80;;
26977;SDS011;56314;48.088;11.642;2023-02-17T13:19:09;6.45;;;1.88;;
26977;SDS011;56314;48.088;11.642;2023-02-17T13:21:34;8.23;;;2.53;;
26977;SDS011;56314;48.088;11.642;2023-02-17T13:24:01;7.63;;;2.50;;
26977;SDS011;56314;48.088;11.642;2023-02-17T13:26:29;6.78;;;1.90;;
26977;SDS011;56314;48.088;11.642;2023-02-17T13:31:51;5.90;;;2.35;;
26977;SDS011;56314;48.088;11.642;2023-02-17T13:34:37;6.47;;;2.20;;
26977;SDS011;56314;48.088;11.642;2023-02-17T13:37:18;7.22;;;2.45;;
26977;SDS011;56314;48.088;11.642;2023-02-17T13:39:50;8.07;;;2.50;;
26977;SDS011;56314;48.088;11.642;2023-02-17T13:48:14;9.57;;;2.25;;
26977;SDS011;56314;48.088;11.642;2023-02-17T13:50:44;4.60;;;2.15;;
26977;SDS011;56314;48.088;11.642;2023-02-17T13:56:03;7.00;;;2.22;;
26977;SDS011;56314;48.088;11.642;2023-02-17T13:58:31;9.07;;;2.22;;
26977;SDS011;56314;48.088;11.642;2023-02-17T14:01:02;3.92;;;2.35;;
26977;SDS011;56314;48.088;11.642;2023-02-17T14:03:33;5.28;;;2.50;;
26977;SDS011;56314;48.088;11.642;2023-02-17T14:06:05;4.75;;;2.13;;
26977;SDS011;56314;48.088;11.642;2023-02-17T14:08:35;7.57;;;2.38;;
26977;SDS011;56314;48.088;11.642;2023-02-17T14:11:07;2.70;;;1.80;;
26977;SDS011;56314;48.088;11.642;2023-02-17T14:13:33;4.53;;;1.90;;
26977;SDS011;56314;48.088;11.642;2023-02-17T14:16:00;5.90;;;2.28;;
26977;SDS011;56314;48.088;11.642;2023-02-17T14:18:34;3.03;;;1.80;;
26977;SDS011;56314;48.088;11.642;2023-02-17T14:21:06;6.97;;;2.20;;
26977;SDS011;56314;48.088;11.642;2023-02-17T14:26:11;7.65;;;2.60;;
26977;SDS011;56314;48.088;11.642;2023-02-17T14:28:54;3.88;;;2.20;;
26977;SDS011;56314;48.088;11.642;2023-02-17T14:31:23;8.07;;;3.35;;
26977;SDS011;56314;48.088;11.642;2023-02-17T14:33:59;4.95;;;1.75;;
26977;SDS011;56314;48.088;11.642;2023-02-17T14:36:27;2.65;;;1.63;;
26977;SDS011;56314;48.088;11.642;2023-02-17T14:38:55;5.28;;;2.22;;
26977;SDS011;56314;48.088;11.642;2023-02-17T14:41:22;4.47;;;1.90;;
26977;SDS011;56314;48.088;11.642;2023-02-17T14:43:47;5.57;;;2.15;;
26977;SDS011;56314;48.088;11.642;2023-02-17T14:46:12;4.03;;;1.80;;
26977;SDS011;56314;48.088;11.642;2023-02-17T14:48:39;5.50;;;2.10;;
26977;SDS011;56314;48.088;11.642;2023-02-17T14:51:09;3.50;;;2.20;;
26977;SDS011;56314;48.088;11.642;2023-02-17T14:53:37;5.82;;;1.85;;
26977;SDS011;56314;48.088;11.642;2023-02-17T14:58:45;4.65;;;1.80;;
26977;SDS011;56314;48.088;11.642;2023-02-17T15:01:12;7.18;;;2.03;;
26977;SDS011;56314;48.088;11.642;2023-02-17T15:03:39;5.13;;;2.40;;
26977;SDS011;56314;48.088;11.642;2023-02-17T15:06:15;4.75;;;2.30;;
26977;SDS011;56314;48.088;11.642;2023-02-17T15:08:42;3.55;;;2.13;;
26977;SDS011;56314;48.088;11.642;2023-02-17T15:11:32;3.58;;;1.90;;
26977;SDS011;56314;48.088;11.642;2023-02-17T15:14:04;5.00;;;1.83;;
26977;SDS011;56314;48.088;11.642;2023-02-17T15:16:30;7.32;;;1.90;;
26977;SDS011;56314;48.088;11.642;2023-02-17T15:18:55;3.17;;;1.70;;
26977;SDS011;56314;48.088;11.642;2023-02-17T15:21:25;4.63;;;1.90;;
26977;SDS011;56314;48.088;11.642;2023-02-17T15:23:53;3.67;;;1.60;;
26977;SDS011;56314;48.088;11.642;2023-02-17T15:26:19;2.95;;;1.70;;
26977;SDS011;56314;48.088;11.642;2023-02-17T15:28:45;3.40;;;1.63;;
26977;SDS011;56314;48.088;11.642;2023-02-17T15:31:11;4.80;;;1.40;;
26977;SDS011;56314;48.088;11.642;2023-02-17T15:33:39;2.50;;;1.60;;
26977;SDS011;56314;48.088;11.642;2023-02-17T15:36:06;3.10;;;1.70;;
26977;SDS011;56314;48.088;11.642;2023-02-17T15:38:31;4.93;;;1.50;;
26977;SDS011;56314;48.088;11.642;2023-02-17T15:40:57;4.00;;;1.88;;
26977;SDS011;56314;48.088;11.642;2023-02-17T15:43:22;4.05;;;1.90;;
26977;SDS011;56314;48.088;11.642;2023-02-17T15:45:55;3.55;;;1.50;;
26977;SDS011;56314;48.088;11.642;2023-02-17T15:48:21;2.95;;;1.73;;
26977;SDS011;56314;48.088;11.642;2023-02-17T15:50:48;5.63;;;1.70;;
26977;SDS011;56314;48.088;11.642;2023-02-17T15:53:13;3.70;;;1.63;;
26977;SDS011;56314;48.088;11.642;2023-02-17T15:55:39;3.80;;;2.00;;
26977;SDS011;56314;48.088;11.642;2023-02-17T15:58:05;4.63;;;1.85;;
26977;SDS011;56314;48.088;11.642;2023-02-17T16:00:37;3.70;;;1.70;;
26977;SDS011;56314;48.088;11.642;2023-02-17T16:03:03;3.50;;;1.85;;
26977;SDS011;56314;48.088;11.642;2023-02-17T16:05:28;3.42;;;1.60;;
26977;SDS011;56314;48.088;11.642;2023-02-17T16:07:54;4.97;;;1.90;;
26977;SDS011;56314;48.088;11.642;2023-02-17T16:10:21;3.22;;;1.55;;
26977;SDS011;56314;48.088;11.642;2023-02-17T16:12:48;2.45;;;1.63;;
26977;SDS011;56314;48.088;11.642;2023-02-17T16:15:16;3.70;;;1.73;;
26977;SDS011;56314;48.088;11.642;2023-02-17T16:17:44;9.35;;;1.70;;
26977;SDS011;56314;48.088;11.642;2023-02-17T16:20:17;3.22;;;1.55;;
26977;SDS011;56314;48.088;11.642;2023-02-17T16:22:48;5.78;;;1.60;;
26977;SDS011;56314;48.088;11.642;2023-02-17T16:25:15;4.43;;;2.13;;
26977;SDS011;56314;48.088;11.642;2023-02-17T16:27:42;4.45;;;1.85;;